sensor_id;sensor_type;location;lat;lon;timestamp;P1;durP1;ratioP1;P2;durP2;ratioP2
18512;SDS011;9385;48.380;9.744;2022-12-29T00:00:14;4.95;;;2.17;;
18512;SDS011;9385;48.380;9.744;2022-12-29T00:02:41;5.10;;;1.83;;
18512;SDS011;9385;48.380;9.744;2022-12-29T00:05:08;3.75;;;2.20;;
18512;SDS011;9385;48.380;9.744;2022-12-29T00:07:36;2.90;;;1.90;;
18512;SDS011;9385;48.380;9.744;2022-12-29T00:10:03;3.60;;;1.90;;
18512;SDS011;9385;48.380;9.744;2022-12-29T00:12:31;7.43;;;2.88;;
18512;SDS011;9385;48.380;9.744;2022-12-29T00:15:12;6.55;;;3.22;;
18512;SDS011;9385;48.380;9.744;2022-12-29T00:17:56;5.95;;;3.42;;
18512;SDS011;9385;48.380;9.744;2022-12-29T00:20:23;6.80;;;3.60;;
18512;SDS011;9385;48.380;9.744;2022-12-29T00:23:09;5.03;;;2.85;;
18512;SDS011;9385;48.380;9.744;2022-12-29T00:25:53;4.27;;;1.90;;
18512;SDS011;9385;48.380;9.744;2022-12-29T00:28:37;4.28;;;1.73;;
18512;SDS011;9385;48.380;9.744;2022-12-29T00:31:22;4.10;;;1.90;;
18512;SDS011;9385;48.380;9.744;2022-12-29T00:34:07;3.42;;;1.77;;
18512;SDS011;9385;48.380;9.744;2022-12-29T00:36:54;3.63;;;1.90;;
18512;SDS011;9385;48.380;9.744;2022-12-29T00:39:22;3.20;;;2.00;;
18512;SDS011;9385;48.380;9.744;2022-12-29T00:42:07;2.85;;;1.60;;
18512;SDS011;9385;48.380;9.744;2022-12-29T00:44:58;4.20;;;1.90;;
18512;SDS011;9385;48.380;9.744;2022-12-29T00:47:25;4.68;;;2.08;;
18512;SDS011;9385;48.380;9.744;2022-12-29T00:49:52;2.75;;;1.88;;
18512;SDS011;9385;48.380;9.744;2022-12-29T00:52:18;4.82;;;1.90;;
18512;SDS011;9385;48.380;9.744;2022-12-29T00:54:46;2.42;;;1.63;;
18512;SDS011;9385;48.380;9.744;2022-12-29T00:57:13;2.85;;;1.60;;
18512;SDS011;9385;48.380;9.744;2022-12-29T00:59:40;2.80;;;1.70;;
18512;SDS011;9385;48.380;9.744;2022-12-29T01:02:08;2.55;;;1.63;;
18512;SDS011;9385;48.380;9.744;2022-12-29T01:04:35;3.92;;;1.80;;
18512;SDS011;9385;48.380;9.744;2022-12-29T01:07:02;3.63;;;1.80;;
18512;SDS011;9385;48.380;9.744;2022-12-29T01:09:30;3.65;;;1.67;;
18512;SDS011;9385;48.380;9.744;2022-12-29T01:12:16;3.42;;;1.92;;
18512;SDS011;9385;48.380;9.744;2022-12-29T01:15:04;4.35;;;2.20;;
18512;SDS011;9385;48.380;9.744;2022-12-29T01:17:31;4.78;;;2.45;;
18512;SDS011;9385;48.380;9.744;2022-12-29T01:19:58;4.53;;;2.20;;
18512;SDS011;9385;48.380;9.744;2022-12-29T01:22:25;3.55;;;2.20;;
18512;SDS011;9385;48.380;9.744;2022-12-29T01:24:52;3.28;;;2.10;;
18512;SDS011;9385;48.380;9.744;2022-12-29T01:27:20;3.15;;;1.95;;
18512;SDS011;9385;48.380;9.744;2022-12-29T01:29:47;3.60;;;2.05;;
18512;SDS011;9385;48.380;9.744;2022-12-29T01:32:13;3.92;;;2.00;;
18512;SDS011;9385;48.380;9.744;2022-12-29T01:34:40;4.68;;;2.08;;
18512;SDS011;9385;48.380;9.744;2022-12-29T01:37:07;4.20;;;1.90;;
18512;SDS011;9385;48.380;9.744;2022-12-29T01:39:34;4.55;;;1.92;;
18512;SDS011;9385;48.380;9.744;2022-12-29T01:42:00;3.90;;;2.20;;
18512;SDS011;9385;48.380;9.744;2022-12-29T01:44:48;3.85;;;2.00;;
18512;SDS011;9385;48.380;9.744;2022-12-29T01:47:19;3.05;;;1.92;;
18512;SDS011;9385;48.380;9.744;2022-12-29T01:49:52;4.75;;;1.92;;
18512;SDS011;9385;48.380;9.744;2022-12-29T01:52:21;5.15;;;2.00;;
18512;SDS011;9385;48.380;9.744;2022-12-29T01:54:50;2.88;;;2.00;;
18512;SDS011;9385;48.380;9.744;2022-12-29T01:57:20;3.50;;;1.98;;
18512;SDS011;9385;48.380;9.744;2022-12-29T01:59:52;6.28;;;1.80;;
18512;SDS011;9385;48.380;9.744;2022-12-29T02:02:22;3.50;;;1.98;;
18512;SDS011;9385;48.380;9.744;2022-12-29T02:04:50;5.50;;;2.08;;
18512;SDS011;9385;48.380;9.744;2022-12-29T02:07:20;4.65;;;1.90;;
18512;SDS011;9385;48.380;9.744;2022-12-29T02:09:49;4.20;;;1.83;;
18512;SDS011;9385;48.380;9.744;2022-12-29T02:12:18;3.78;;;1.60;;
18512;SDS011;9385;48.380;9.744;2022-12-29T02:14:47;5.22;;;1.60;;
18512;SDS011;9385;48.380;9.744;2022-12-29T02:17:18;4.50;;;1.70;;
18512;SDS011;9385;48.380;9.744;2022-12-29T02:20:01;8.85;;;1.58;;
18512;SDS011;9385;48.380;9.744;2022-12-29T02:22:59;2.80;;;1.50;;
18512;SDS011;9385;48.380;9.744;2022-12-29T02:25:46;3.53;;;1.70;;
18512;SDS011;9385;48.380;9.744;2022-12-29T02:28:33;2.47;;;1.60;;
18512;SDS011;9385;48.380;9.744;2022-12-29T02:31:13;2.63;;;1.40;;
18512;SDS011;9385;48.380;9.744;2022-12-29T02:33:50;3.27;;;1.60;;
18512;SDS011;9385;48.380;9.744;2022-12-29T02:36:29;3.70;;;1.70;;
18512;SDS011;9385;48.380;9.744;2022-12-29T02:39:04;2.47;;;1.38;;
18512;SDS011;9385;48.380;9.744;2022-12-29T02:41:37;2.72;;;1.48;;
18512;SDS011;9385;48.380;9.744;2022-12-29T02:44:15;4.47;;;1.60;;
18512;SDS011;9385;48.380;9.744;2022-12-29T02:46:52;3.22;;;1.42;;
18512;SDS011;9385;48.380;9.744;2022-12-29T02:49:22;3.40;;;1.30;;
18512;SDS011;9385;48.380;9.744;2022-12-29T02:51:58;3.03;;;1.40;;
18512;SDS011;9385;48.380;9.744;2022-12-29T02:54:28;4.72;;;1.48;;
18512;SDS011;9385;48.380;9.744;2022-12-29T02:57:08;4.07;;;1.70;;
18512;SDS011;9385;48.380;9.744;2022-12-29T02:59:40;2.83;;;1.50;;
18512;SDS011;9385;48.380;9.744;2022-12-29T03:02:14;5.13;;;1.60;;
18512;SDS011;9385;48.380;9.744;2022-12-29T03:05:00;3.25;;;1.40;;
18512;SDS011;9385;48.380;9.744;2022-12-29T03:07:43;2.27;;;1.40;;
18512;SDS011;9385;48.380;9.744;2022-12-29T03:10:19;2.90;;;1.40;;
18512;SDS011;9385;48.380;9.744;2022-12-29T03:13:01;3.72;;;1.40;;
18512;SDS011;9385;48.380;9.744;2022-12-29T03:15:50;2.28;;;1.20;;
18512;SDS011;9385;48.380;9.744;2022-12-29T03:18:40;3.35;;;1.50;;
18512;SDS011;9385;48.380;9.744;2022-12-29T03:21:12;1.77;;;1.30;;
18512;SDS011;9385;48.380;9.744;2022-12-29T03:23:43;3.17;;;1.40;;
18512;SDS011;9385;48.380;9.744;2022-12-29T03:26:14;2.67;;;1.40;;
18512;SDS011;9385;48.380;9.744;2022-12-29T03:28:45;4.68;;;1.30;;
18512;SDS011;9385;48.380;9.744;2022-12-29T03:31:16;4.22;;;1.38;;
18512;SDS011;9385;48.380;9.744;2022-12-29T03:33:46;3.85;;;1.35;;
18512;SDS011;9385;48.380;9.744;2022-12-29T03:36:17;4.57;;;1.27;;
18512;SDS011;9385;48.380;9.744;2022-12-29T03:38:52;3.00;;;1.42;;
18512;SDS011;9385;48.380;9.744;2022-12-29T03:41:26;4.35;;;1.40;;
18512;SDS011;9385;48.380;9.744;2022-12-29T03:43:57;3.75;;;1.30;;
18512;SDS011;9385;48.380;9.744;2022-12-29T03:46:24;4.23;;;1.30;;
18512;SDS011;9385;48.380;9.744;2022-12-29T03:48:52;3.38;;;1.20;;
18512;SDS011;9385;48.380;9.744;2022-12-29T03:51:19;2.07;;;1.20;;
18512;SDS011;9385;48.380;9.744;2022-12-29T03:53:45;2.20;;;1.27;;
18512;SDS011;9385;48.380;9.744;2022-12-29T03:56:12;2.72;;;1.20;;
18512;SDS011;9385;48.380;9.744;2022-12-29T03:58:39;2.35;;;1.30;;
18512;SDS011;9385;48.380;9.744;2022-12-29T04:01:06;2.67;;;1.52;;
18512;SDS011;9385;48.380;9.744;2022-12-29T04:03:33;2.50;;;1.40;;
18512;SDS011;9385;48.380;9.744;2022-12-29T04:06:01;2.53;;;1.30;;
18512;SDS011;9385;48.380;9.744;2022-12-29T04:08:28;2.53;;;1.10;;
18512;SDS011;9385;48.380;9.744;2022-12-29T04:10:55;3.22;;;1.40;;
18512;SDS011;9385;48.380;9.744;2022-12-29T04:13:22;4.10;;;1.30;;
18512;SDS011;9385;48.380;9.744;2022-12-29T04:15:49;2.90;;;1.30;;
18512;SDS011;9385;48.380;9.744;2022-12-29T04:18:16;3.53;;;1.40;;
18512;SDS011;9385;48.380;9.744;2022-12-29T04:20:44;2.38;;;1.20;;
18512;SDS011;9385;48.380;9.744;2022-12-29T04:23:29;3.80;;;1.30;;
18512;SDS011;9385;48.380;9.744;2022-12-29T04:25:57;2.20;;;1.30;;
18512;SDS011;9385;48.380;9.744;2022-12-29T04:28:24;2.78;;;1.25;;
18512;SDS011;9385;48.380;9.744;2022-12-29T04:30:52;3.47;;;1.40;;
18512;SDS011;9385;48.380;9.744;2022-12-29T04:33:19;3.40;;;1.40;;
18512;SDS011;9385;48.380;9.744;2022-12-29T04:35:46;4.43;;;1.40;;
18512;SDS011;9385;48.380;9.744;2022-12-29T04:38:13;3.47;;;1.30;;
18512;SDS011;9385;48.380;9.744;2022-12-29T04:40:42;3.58;;;1.40;;
18512;SDS011;9385;48.380;9.744;2022-12-29T04:43:09;3.13;;;1.25;;
18512;SDS011;9385;48.380;9.744;2022-12-29T04:45:36;1.92;;;1.38;;
18512;SDS011;9385;48.380;9.744;2022-12-29T04:48:03;3.10;;;1.40;;
18512;SDS011;9385;48.380;9.744;2022-12-29T04:50:31;3.22;;;1.40;;
18512;SDS011;9385;48.380;9.744;2022-12-29T04:52:58;5.20;;;1.30;;
18512;SDS011;9385;48.380;9.744;2022-12-29T04:55:24;2.67;;;1.60;;
18512;SDS011;9385;48.380;9.744;2022-12-29T04:57:52;4.35;;;1.70;;
18512;SDS011;9385;48.380;9.744;2022-12-29T05:00:19;1.80;;;1.30;;
18512;SDS011;9385;48.380;9.744;2022-12-29T05:02:46;2.78;;;1.55;;
18512;SDS011;9385;48.380;9.744;2022-12-29T05:05:13;5.53;;;1.50;;
18512;SDS011;9385;48.380;9.744;2022-12-29T05:07:40;2.72;;;1.42;;
18512;SDS011;9385;48.380;9.744;2022-12-29T05:10:08;5.03;;;1.53;;
18512;SDS011;9385;48.380;9.744;2022-12-29T05:12:35;4.35;;;1.42;;
18512;SDS011;9385;48.380;9.744;2022-12-29T05:15:06;2.67;;;1.40;;
18512;SDS011;9385;48.380;9.744;2022-12-29T05:17:34;2.60;;;1.60;;
18512;SDS011;9385;48.380;9.744;2022-12-29T05:20:01;2.70;;;1.43;;
18512;SDS011;9385;48.380;9.744;2022-12-29T05:22:28;2.65;;;1.45;;
18512;SDS011;9385;48.380;9.744;2022-12-29T05:24:55;2.78;;;1.50;;
18512;SDS011;9385;48.380;9.744;2022-12-29T05:27:22;3.45;;;1.60;;
18512;SDS011;9385;48.380;9.744;2022-12-29T05:29:49;2.77;;;1.37;;
18512;SDS011;9385;48.380;9.744;2022-12-29T05:32:17;3.35;;;1.63;;
18512;SDS011;9385;48.380;9.744;2022-12-29T05:34:44;3.88;;;1.80;;
18512;SDS011;9385;48.380;9.744;2022-12-29T05:37:11;3.70;;;1.45;;
18512;SDS011;9385;48.380;9.744;2022-12-29T05:39:38;2.83;;;1.50;;
18512;SDS011;9385;48.380;9.744;2022-12-29T05:42:05;3.22;;;1.30;;
18512;SDS011;9385;48.380;9.744;2022-12-29T05:44:31;4.95;;;1.33;;
18512;SDS011;9385;48.380;9.744;2022-12-29T05:46:58;5.50;;;1.60;;
18512;SDS011;9385;48.380;9.744;2022-12-29T05:49:26;3.78;;;1.55;;
18512;SDS011;9385;48.380;9.744;2022-12-29T05:51:53;3.90;;;1.40;;
18512;SDS011;9385;48.380;9.744;2022-12-29T05:54:20;3.30;;;1.40;;
18512;SDS011;9385;48.380;9.744;2022-12-29T05:56:47;4.07;;;1.40;;
18512;SDS011;9385;48.380;9.744;2022-12-29T05:59:14;6.37;;;1.77;;
18512;SDS011;9385;48.380;9.744;2022-12-29T06:01:41;4.17;;;1.60;;
18512;SDS011;9385;48.380;9.744;2022-12-29T06:04:07;3.28;;;1.50;;
18512;SDS011;9385;48.380;9.744;2022-12-29T06:06:36;5.38;;;1.75;;
18512;SDS011;9385;48.380;9.744;2022-12-29T06:09:03;1.87;;;1.20;;
18512;SDS011;9385;48.380;9.744;2022-12-29T06:11:30;3.58;;;1.52;;
18512;SDS011;9385;48.380;9.744;2022-12-29T06:13:57;2.33;;;1.40;;
18512;SDS011;9385;48.380;9.744;2022-12-29T06:16:24;3.28;;;1.60;;
18512;SDS011;9385;48.380;9.744;2022-12-29T06:18:51;3.67;;;1.70;;
18512;SDS011;9385;48.380;9.744;2022-12-29T06:21:17;3.78;;;1.45;;
18512;SDS011;9385;48.380;9.744;2022-12-29T06:23:46;3.00;;;1.50;;
18512;SDS011;9385;48.380;9.744;2022-12-29T06:26:13;4.20;;;1.77;;
18512;SDS011;9385;48.380;9.744;2022-12-29T06:28:40;2.73;;;1.60;;
18512;SDS011;9385;48.380;9.744;2022-12-29T06:31:08;2.25;;;1.48;;
18512;SDS011;9385;48.380;9.744;2022-12-29T06:33:35;3.00;;;1.75;;
18512;SDS011;9385;48.380;9.744;2022-12-29T06:36:02;3.35;;;2.00;;
18512;SDS011;9385;48.380;9.744;2022-12-29T06:38:30;2.97;;;1.48;;
18512;SDS011;9385;48.380;9.744;2022-12-29T06:40:58;3.13;;;1.67;;
18512;SDS011;9385;48.380;9.744;2022-12-29T06:43:24;3.75;;;1.70;;
18512;SDS011;9385;48.380;9.744;2022-12-29T06:45:51;3.13;;;1.70;;
18512;SDS011;9385;48.380;9.744;2022-12-29T06:48:18;2.72;;;1.63;;
18512;SDS011;9385;48.380;9.744;2022-12-29T06:50:45;2.95;;;1.58;;
18512;SDS011;9385;48.380;9.744;2022-12-29T06:53:11;3.47;;;1.77;;
18512;SDS011;9385;48.380;9.744;2022-12-29T06:55:38;4.10;;;1.70;;
18512;SDS011;9385;48.380;9.744;2022-12-29T06:58:06;3.33;;;1.70;;
18512;SDS011;9385;48.380;9.744;2022-12-29T07:00:33;3.42;;;1.90;;
18512;SDS011;9385;48.380;9.744;2022-12-29T07:03:00;5.38;;;1.95;;
18512;SDS011;9385;48.380;9.744;2022-12-29T07:05:27;2.67;;;1.60;;
18512;SDS011;9385;48.380;9.744;2022-12-29T07:07:56;2.53;;;1.50;;
18512;SDS011;9385;48.380;9.744;2022-12-29T07:10:23;3.88;;;2.30;;
18512;SDS011;9385;48.380;9.744;2022-12-29T07:12:50;6.07;;;3.55;;
18512;SDS011;9385;48.380;9.744;2022-12-29T07:15:18;4.90;;;3.05;;
18512;SDS011;9385;48.380;9.744;2022-12-29T07:17:45;4.75;;;2.30;;
18512;SDS011;9385;48.380;9.744;2022-12-29T07:20:11;3.05;;;1.80;;
18512;SDS011;9385;48.380;9.744;2022-12-29T07:22:38;5.45;;;2.03;;
18512;SDS011;9385;48.380;9.744;2022-12-29T07:25:05;4.07;;;1.80;;
18512;SDS011;9385;48.380;9.744;2022-12-29T07:27:32;4.32;;;1.98;;
18512;SDS011;9385;48.380;9.744;2022-12-29T07:29:59;4.13;;;1.90;;
18512;SDS011;9385;48.380;9.744;2022-12-29T07:32:27;3.00;;;1.75;;
18512;SDS011;9385;48.380;9.744;2022-12-29T07:34:57;4.10;;;2.17;;
18512;SDS011;9385;48.380;9.744;2022-12-29T07:37:24;3.17;;;1.90;;
18512;SDS011;9385;48.380;9.744;2022-12-29T07:39:51;3.60;;;1.70;;
18512;SDS011;9385;48.380;9.744;2022-12-29T07:42:18;4.70;;;2.03;;
18512;SDS011;9385;48.380;9.744;2022-12-29T07:44:45;2.93;;;1.60;;
18512;SDS011;9385;48.380;9.744;2022-12-29T07:47:12;8.25;;;1.95;;
18512;SDS011;9385;48.380;9.744;2022-12-29T07:49:40;3.58;;;1.98;;
18512;SDS011;9385;48.380;9.744;2022-12-29T07:52:07;4.68;;;2.10;;
18512;SDS011;9385;48.380;9.744;2022-12-29T07:54:33;6.22;;;2.28;;
18512;SDS011;9385;48.380;9.744;2022-12-29T07:57:00;5.82;;;1.90;;
18512;SDS011;9385;48.380;9.744;2022-12-29T07:59:27;7.20;;;2.22;;
18512;SDS011;9385;48.380;9.744;2022-12-29T08:01:55;5.40;;;2.03;;
18512;SDS011;9385;48.380;9.744;2022-12-29T08:04:22;4.40;;;1.83;;
18512;SDS011;9385;48.380;9.744;2022-12-29T08:06:50;4.10;;;2.00;;
18512;SDS011;9385;48.380;9.744;2022-12-29T08:09:17;5.15;;;2.15;;
18512;SDS011;9385;48.380;9.744;2022-12-29T08:11:43;3.33;;;1.92;;
18512;SDS011;9385;48.380;9.744;2022-12-29T08:14:10;4.97;;;2.50;;
18512;SDS011;9385;48.380;9.744;2022-12-29T08:16:37;5.70;;;2.03;;
18512;SDS011;9385;48.380;9.744;2022-12-29T08:19:05;4.80;;;2.30;;
18512;SDS011;9385;48.380;9.744;2022-12-29T08:21:32;6.23;;;2.30;;
18512;SDS011;9385;48.380;9.744;2022-12-29T08:24:00;4.47;;;2.28;;
18512;SDS011;9385;48.380;9.744;2022-12-29T08:26:27;5.47;;;2.30;;
18512;SDS011;9385;48.380;9.744;2022-12-29T08:28:54;5.47;;;2.00;;
18512;SDS011;9385;48.380;9.744;2022-12-29T08:31:21;4.60;;;2.20;;
18512;SDS011;9385;48.380;9.744;2022-12-29T08:33:48;4.18;;;2.25;;
18512;SDS011;9385;48.380;9.744;2022-12-29T08:36:15;3.20;;;2.20;;
18512;SDS011;9385;48.380;9.744;2022-12-29T08:38:42;5.85;;;2.17;;
18512;SDS011;9385;48.380;9.744;2022-12-29T08:41:10;4.60;;;2.00;;
18512;SDS011;9385;48.380;9.744;2022-12-29T08:43:37;5.35;;;2.20;;
18512;SDS011;9385;48.380;9.744;2022-12-29T08:46:04;5.13;;;2.38;;
18512;SDS011;9385;48.380;9.744;2022-12-29T08:48:30;7.32;;;2.75;;
18512;SDS011;9385;48.380;9.744;2022-12-29T08:50:57;8.15;;;4.40;;
18512;SDS011;9385;48.380;9.744;2022-12-29T08:53:24;5.82;;;3.40;;
18512;SDS011;9385;48.380;9.744;2022-12-29T08:55:54;4.60;;;2.60;;
18512;SDS011;9385;48.380;9.744;2022-12-29T08:58:24;5.50;;;2.58;;
18512;SDS011;9385;48.380;9.744;2022-12-29T09:00:52;6.93;;;3.80;;
18512;SDS011;9385;48.380;9.744;2022-12-29T09:03:19;10.00;;;5.60;;
18512;SDS011;9385;48.380;9.744;2022-12-29T09:05:47;9.77;;;4.95;;
18512;SDS011;9385;48.380;9.744;2022-12-29T09:08:14;9.95;;;5.15;;
18512;SDS011;9385;48.380;9.744;2022-12-29T09:10:41;8.02;;;3.58;;
18512;SDS011;9385;48.380;9.744;2022-12-29T09:13:08;7.13;;;3.92;;
18512;SDS011;9385;48.380;9.744;2022-12-29T09:15:36;9.65;;;4.93;;
18512;SDS011;9385;48.380;9.744;2022-12-29T09:18:04;5.28;;;3.53;;
18512;SDS011;9385;48.380;9.744;2022-12-29T09:20:31;5.15;;;2.70;;
18512;SDS011;9385;48.380;9.744;2022-12-29T09:22:58;8.75;;;3.70;;
18512;SDS011;9385;48.380;9.744;2022-12-29T09:25:26;6.30;;;3.17;;
18512;SDS011;9385;48.380;9.744;2022-12-29T09:27:53;5.40;;;2.45;;
18512;SDS011;9385;48.380;9.744;2022-12-29T09:30:21;5.47;;;2.80;;
18512;SDS011;9385;48.380;9.744;2022-12-29T09:32:50;5.17;;;2.60;;
18512;SDS011;9385;48.380;9.744;2022-12-29T09:35:17;5.18;;;2.25;;
18512;SDS011;9385;48.380;9.744;2022-12-29T09:37:44;4.25;;;2.55;;
18512;SDS011;9385;48.380;9.744;2022-12-29T09:40:16;6.87;;;4.17;;
18512;SDS011;9385;48.380;9.744;2022-12-29T09:45:55;5.30;;;2.40;;
18512;SDS011;9385;48.380;9.744;2022-12-29T09:48:31;5.77;;;2.37;;
18512;SDS011;9385;48.380;9.744;2022-12-29T09:51:07;6.38;;;2.47;;
18512;SDS011;9385;48.380;9.744;2022-12-29T09:53:38;6.33;;;2.60;;
18512;SDS011;9385;48.380;9.744;2022-12-29T09:56:07;5.03;;;2.47;;
18512;SDS011;9385;48.380;9.744;2022-12-29T09:58:41;5.38;;;2.42;;
18512;SDS011;9385;48.380;9.744;2022-12-29T10:01:14;6.03;;;3.00;;
18512;SDS011;9385;48.380;9.744;2022-12-29T10:03:50;5.45;;;2.67;;
18512;SDS011;9385;48.380;9.744;2022-12-29T10:06:19;8.27;;;4.10;;
18512;SDS011;9385;48.380;9.744;2022-12-29T10:08:52;6.25;;;3.03;;
18512;SDS011;9385;48.380;9.744;2022-12-29T10:11:29;6.63;;;3.20;;
18512;SDS011;9385;48.380;9.744;2022-12-29T10:14:17;9.38;;;5.70;;
18512;SDS011;9385;48.380;9.744;2022-12-29T10:16:57;11.23;;;4.90;;
18512;SDS011;9385;48.380;9.744;2022-12-29T10:19:37;13.50;;;4.97;;
18512;SDS011;9385;48.380;9.744;2022-12-29T10:22:16;10.00;;;4.50;;
18512;SDS011;9385;48.380;9.744;2022-12-29T10:24:53;9.65;;;4.15;;
18512;SDS011;9385;48.380;9.744;2022-12-29T10:27:22;9.35;;;4.40;;
18512;SDS011;9385;48.380;9.744;2022-12-29T10:29:50;7.50;;;2.95;;
18512;SDS011;9385;48.380;9.744;2022-12-29T10:32:23;6.65;;;3.08;;
18512;SDS011;9385;48.380;9.744;2022-12-29T10:34:57;5.70;;;2.95;;
18512;SDS011;9385;48.380;9.744;2022-12-29T10:37:30;5.45;;;2.80;;
18512;SDS011;9385;48.380;9.744;2022-12-29T10:40:12;5.20;;;2.70;;
18512;SDS011;9385;48.380;9.744;2022-12-29T10:42:45;4.57;;;2.58;;
18512;SDS011;9385;48.380;9.744;2022-12-29T10:45:16;4.85;;;2.38;;
18512;SDS011;9385;48.380;9.744;2022-12-29T10:47:49;5.32;;;2.00;;
18512;SDS011;9385;48.380;9.744;2022-12-29T10:50:23;6.55;;;2.40;;
18512;SDS011;9385;48.380;9.744;2022-12-29T10:52:51;6.07;;;2.30;;
18512;SDS011;9385;48.380;9.744;2022-12-29T10:55:19;4.93;;;2.27;;
18512;SDS011;9385;48.380;9.744;2022-12-29T10:57:50;3.75;;;2.17;;
18512;SDS011;9385;48.380;9.744;2022-12-29T11:00:18;6.70;;;2.78;;
18512;SDS011;9385;48.380;9.744;2022-12-29T11:02:50;8.70;;;2.67;;
18512;SDS011;9385;48.380;9.744;2022-12-29T11:05:37;9.48;;;2.38;;
18512;SDS011;9385;48.380;9.744;2022-12-29T11:08:09;5.07;;;2.10;;
18512;SDS011;9385;48.380;9.744;2022-12-29T11:10:40;4.40;;;2.00;;
18512;SDS011;9385;48.380;9.744;2022-12-29T11:13:12;5.47;;;2.15;;
18512;SDS011;9385;48.380;9.744;2022-12-29T11:15:41;7.93;;;2.50;;
18512;SDS011;9385;48.380;9.744;2022-12-29T11:18:19;5.50;;;2.08;;
18512;SDS011;9385;48.380;9.744;2022-12-29T11:20:50;5.72;;;2.20;;
18512;SDS011;9385;48.380;9.744;2022-12-29T11:23:26;6.78;;;2.30;;
18512;SDS011;9385;48.380;9.744;2022-12-29T11:26:05;4.50;;;2.20;;
18512;SDS011;9385;48.380;9.744;2022-12-29T11:28:44;6.73;;;2.13;;
18512;SDS011;9385;48.380;9.744;2022-12-29T11:31:15;8.07;;;2.50;;
18512;SDS011;9385;48.380;9.744;2022-12-29T11:33:42;4.97;;;2.10;;
18512;SDS011;9385;48.380;9.744;2022-12-29T11:36:12;5.10;;;2.10;;
18512;SDS011;9385;48.380;9.744;2022-12-29T11:38:41;5.45;;;2.13;;
18512;SDS011;9385;48.380;9.744;2022-12-29T11:41:13;4.45;;;2.28;;
18512;SDS011;9385;48.380;9.744;2022-12-29T11:43:45;5.22;;;2.15;;
18512;SDS011;9385;48.380;9.744;2022-12-29T11:46:14;7.63;;;2.40;;
18512;SDS011;9385;48.380;9.744;2022-12-29T11:48:43;8.98;;;2.30;;
18512;SDS011;9385;48.380;9.744;2022-12-29T11:51:13;4.75;;;2.05;;
18512;SDS011;9385;48.380;9.744;2022-12-29T11:53:49;7.93;;;2.22;;
18512;SDS011;9385;48.380;9.744;2022-12-29T11:56:19;6.95;;;2.42;;
18512;SDS011;9385;48.380;9.744;2022-12-29T11:58:48;7.50;;;2.50;;
18512;SDS011;9385;48.380;9.744;2022-12-29T12:01:19;5.78;;;2.08;;
18512;SDS011;9385;48.380;9.744;2022-12-29T12:03:52;6.65;;;2.40;;
18512;SDS011;9385;48.380;9.744;2022-12-29T12:06:27;10.15;;;2.90;;
18512;SDS011;9385;48.380;9.744;2022-12-29T12:08:58;6.68;;;2.38;;
18512;SDS011;9385;48.380;9.744;2022-12-29T12:11:31;6.15;;;3.00;;
18512;SDS011;9385;48.380;9.744;2022-12-29T12:14:04;5.55;;;2.55;;
18512;SDS011;9385;48.380;9.744;2022-12-29T12:16:39;7.72;;;2.60;;
18512;SDS011;9385;48.380;9.744;2022-12-29T12:19:12;4.72;;;1.95;;
18512;SDS011;9385;48.380;9.744;2022-12-29T12:21:45;4.18;;;1.98;;
18512;SDS011;9385;48.380;9.744;2022-12-29T12:24:20;4.30;;;1.90;;
18512;SDS011;9385;48.380;9.744;2022-12-29T12:27:01;4.15;;;2.00;;
18512;SDS011;9385;48.380;9.744;2022-12-29T12:29:36;7.95;;;3.10;;
18512;SDS011;9385;48.380;9.744;2022-12-29T12:32:11;8.23;;;3.30;;
18512;SDS011;9385;48.380;9.744;2022-12-29T12:34:43;6.17;;;2.20;;
18512;SDS011;9385;48.380;9.744;2022-12-29T12:40:17;5.50;;;2.33;;
18512;SDS011;9385;48.380;9.744;2022-12-29T12:43:18;6.47;;;2.25;;
18512;SDS011;9385;48.380;9.744;2022-12-29T12:46:30;4.68;;;2.08;;
18512;SDS011;9385;48.380;9.744;2022-12-29T12:49:32;4.40;;;2.15;;
18512;SDS011;9385;48.380;9.744;2022-12-29T12:52:21;6.68;;;2.22;;
18512;SDS011;9385;48.380;9.744;2022-12-29T12:55:02;5.20;;;2.25;;
18512;SDS011;9385;48.380;9.744;2022-12-29T12:57:46;10.60;;;5.50;;
18512;SDS011;9385;48.380;9.744;2022-12-29T13:00:19;8.75;;;2.42;;
18512;SDS011;9385;48.380;9.744;2022-12-29T13:02:51;8.32;;;2.28;;
18512;SDS011;9385;48.380;9.744;2022-12-29T13:05:31;6.28;;;2.50;;
18512;SDS011;9385;48.380;9.744;2022-12-29T13:11:15;5.20;;;2.10;;
18512;SDS011;9385;48.380;9.744;2022-12-29T13:13:56;8.57;;;1.92;;
18512;SDS011;9385;48.380;9.744;2022-12-29T13:16:34;6.85;;;2.03;;
18512;SDS011;9385;48.380;9.744;2022-12-29T13:19:08;4.40;;;1.60;;
18512;SDS011;9385;48.380;9.744;2022-12-29T13:21:51;5.57;;;2.30;;
18512;SDS011;9385;48.380;9.744;2022-12-29T13:24:28;6.88;;;2.40;;
18512;SDS011;9385;48.380;9.744;2022-12-29T13:27:11;5.60;;;2.30;;
18512;SDS011;9385;48.380;9.744;2022-12-29T13:29:44;5.63;;;3.30;;
18512;SDS011;9385;48.380;9.744;2022-12-29T13:32:19;7.05;;;3.50;;
18512;SDS011;9385;48.380;9.744;2022-12-29T13:34:55;6.57;;;2.50;;
18512;SDS011;9385;48.380;9.744;2022-12-29T13:37:29;9.85;;;4.05;;
18512;SDS011;9385;48.380;9.744;2022-12-29T13:40:00;10.50;;;5.35;;
18512;SDS011;9385;48.380;9.744;2022-12-29T13:42:31;12.05;;;6.07;;
18512;SDS011;9385;48.380;9.744;2022-12-29T13:45:01;6.75;;;3.30;;
18512;SDS011;9385;48.380;9.744;2022-12-29T13:47:31;6.63;;;3.30;;
18512;SDS011;9385;48.380;9.744;2022-12-29T13:50:03;7.47;;;2.83;;
18512;SDS011;9385;48.380;9.744;2022-12-29T13:52:39;6.40;;;2.63;;
18512;SDS011;9385;48.380;9.744;2022-12-29T13:55:18;6.43;;;2.40;;
18512;SDS011;9385;48.380;9.744;2022-12-29T13:57:53;4.35;;;2.00;;
18512;SDS011;9385;48.380;9.744;2022-12-29T14:00:27;6.22;;;2.33;;
18512;SDS011;9385;48.380;9.744;2022-12-29T14:03:10;5.87;;;2.17;;
18512;SDS011;9385;48.380;9.744;2022-12-29T14:05:46;4.63;;;2.30;;
18512;SDS011;9385;48.380;9.744;2022-12-29T14:08:31;17.73;;;3.13;;
18512;SDS011;9385;48.380;9.744;2022-12-29T14:11:04;7.15;;;2.22;;
18512;SDS011;9385;48.380;9.744;2022-12-29T14:13:37;7.88;;;2.45;;
18512;SDS011;9385;48.380;9.744;2022-12-29T14:16:06;7.72;;;2.30;;
18512;SDS011;9385;48.380;9.744;2022-12-29T14:18:40;5.47;;;2.20;;
18512;SDS011;9385;48.380;9.744;2022-12-29T14:21:10;6.65;;;1.90;;
18512;SDS011;9385;48.380;9.744;2022-12-29T14:23:47;9.55;;;2.10;;
18512;SDS011;9385;48.380;9.744;2022-12-29T14:26:16;4.60;;;1.85;;
18512;SDS011;9385;48.380;9.744;2022-12-29T14:29:01;5.18;;;1.73;;
18512;SDS011;9385;48.380;9.744;2022-12-29T14:31:42;4.75;;;2.00;;
18512;SDS011;9385;48.380;9.744;2022-12-29T14:34:16;6.15;;;1.98;;
18512;SDS011;9385;48.380;9.744;2022-12-29T14:36:56;6.97;;;1.80;;
18512;SDS011;9385;48.380;9.744;2022-12-29T14:39:30;3.97;;;1.65;;
18512;SDS011;9385;48.380;9.744;2022-12-29T14:42:00;5.95;;;1.60;;
18512;SDS011;9385;48.380;9.744;2022-12-29T14:44:31;2.45;;;1.50;;
18512;SDS011;9385;48.380;9.744;2022-12-29T14:47:00;3.65;;;1.52;;
18512;SDS011;9385;48.380;9.744;2022-12-29T14:49:31;3.45;;;1.40;;
18512;SDS011;9385;48.380;9.744;2022-12-29T14:52:07;7.30;;;1.60;;
18512;SDS011;9385;48.380;9.744;2022-12-29T14:54:45;5.70;;;1.80;;
18512;SDS011;9385;48.380;9.744;2022-12-29T15:00:12;4.70;;;2.37;;
18512;SDS011;9385;48.380;9.744;2022-12-29T15:02:45;5.28;;;2.60;;
18512;SDS011;9385;48.380;9.744;2022-12-29T15:05:29;8.45;;;3.90;;
18512;SDS011;9385;48.380;9.744;2022-12-29T15:07:58;6.53;;;2.30;;
18512;SDS011;9385;48.380;9.744;2022-12-29T15:10:30;3.80;;;1.90;;
18512;SDS011;9385;48.380;9.744;2022-12-29T15:13:04;4.35;;;1.85;;
18512;SDS011;9385;48.380;9.744;2022-12-29T15:15:41;5.57;;;2.03;;
18512;SDS011;9385;48.380;9.744;2022-12-29T15:18:14;6.03;;;2.10;;
18512;SDS011;9385;48.380;9.744;2022-12-29T15:20:49;6.18;;;2.40;;
18512;SDS011;9385;48.380;9.744;2022-12-29T15:23:18;5.15;;;2.10;;
18512;SDS011;9385;48.380;9.744;2022-12-29T15:25:46;9.80;;;2.30;;
18512;SDS011;9385;48.380;9.744;2022-12-29T15:28:16;8.30;;;2.60;;
18512;SDS011;9385;48.380;9.744;2022-12-29T15:30:51;4.93;;;2.40;;
18512;SDS011;9385;48.380;9.744;2022-12-29T15:33:21;11.98;;;5.57;;
18512;SDS011;9385;48.380;9.744;2022-12-29T15:35:50;30.48;;;14.35;;
18512;SDS011;9385;48.380;9.744;2022-12-29T15:38:20;21.17;;;8.32;;